Time;durP1;ratioP1;P1;durP2;ratioP2;P2;SDS_P1;SDS_P2;PMS_P1;PMS_P2;Temp;Humidity;BMP_temperature;BMP_pressure;BME280_temperature;BME280_humidity;BME280_pressure;Samples;Min_cycle;Max_cycle;Signal;HPM_P1;HPM_P2
2022/12/06 00:00:56;;;;;;;;;43.25;31.00;;;;;7.31;58.80;101653.25;5018151;28;45215;-60
2022/12/06 00:03:21;;;;;;;;;35.00;26.50;;;;;7.17;59.04;101620.59;5015846;28;45956;-61
2022/12/06 00:05:47;;;;;;;;;40.75;34.75;;;;;7.28;59.15;101631.81;5017285;28;45182;-62
2022/12/06 00:08:12;;;;;;;;;33.00;29.75;;;;;7.29;59.08;101623.03;5014812;28;45045;-61
2022/12/06 00:10:37;;;;;;;;;35.50;25.75;;;;;7.28;59.07;101622.94;5013115;28;45243;-61
2022/12/06 00:13:04;;;;;;;;;38.50;27.50;;;;;7.29;59.04;101625.69;5028414;28;45797;-59
2022/12/06 00:15:29;;;;;;;;;40.25;30.75;;;;;7.24;58.73;101610.31;5024893;28;45469;-60
2022/12/06 00:17:55;;;;;;;;;34.50;31.00;;;;;7.41;58.87;101637.78;5008316;28;45096;-61
2022/12/06 00:20:20;;;;;;;;;38.50;33.50;;;;;7.32;59.03;101614.28;5009881;28;45515;-60
2022/12/06 00:22:45;;;;;;;;;40.50;29.75;;;;;7.38;58.48;101626.16;5008704;28;45572;-61
2022/12/06 00:25:11;;;;;;;;;50.75;34.25;;;;;7.36;58.92;101622.50;5022739;28;45410;-61
2022/12/06 00:27:36;;;;;;;;;38.75;34.00;;;;;7.42;59.32;101631.66;5013369;28;54843;-61
2022/12/06 00:30:02;;;;;;;;;44.00;34.75;;;;;7.39;58.50;101619.09;5017250;28;45417;-60
2022/12/06 00:32:27;;;;;;;;;35.50;30.25;;;;;7.35;59.15;101609.13;5035619;28;47022;-60
2022/12/06 00:34:53;;;;;;;;;40.00;35.75;;;;;7.36;59.24;101605.66;5034038;28;49603;-61
2022/12/06 00:37:18;;;;;;;;;42.50;32.75;;;;;7.36;59.18;101603.91;5013776;28;45239;-61
2022/12/06 00:39:43;;;;;;;;;49.00;33.00;;;;;7.41;59.21;101611.19;5015102;28;45030;-60
2022/12/06 00:42:09;;;;;;;;;52.00;33.25;;;;;7.38;59.22;101611.97;5009149;28;45934;-62
2022/12/06 00:44:34;;;;;;;;;43.00;28.00;;;;;7.32;59.02;101595.69;5015538;28;55447;-60
2022/12/06 00:46:59;;;;;;;;;45.75;32.75;;;;;7.36;59.31;101610.97;5015792;28;47556;-62
2022/12/06 00:49:25;;;;;;;;;36.00;32.00;;;;;7.36;59.74;101609.22;5016387;28;45053;-60
2022/12/06 00:51:50;;;;;;;;;37.25;29.50;;;;;7.26;59.27;101590.03;5009770;28;45644;-63
2022/12/06 00:54:15;;;;;;;;;38.50;31.50;;;;;7.33;59.15;101603.75;5033613;28;45424;-61
2022/12/06 00:56:41;;;;;;;;;48.00;33.25;;;;;6.76;58.97;101502.38;5020679;28;45116;-62
2022/12/06 00:59:06;;;;;;;;;37.75;30.25;;;;;7.28;59.25;101591.03;5009589;28;45128;-61
2022/12/06 01:01:32;;;;;;;;;45.25;33.00;;;;;7.27;59.73;101592.75;5022230;28;45716;-64
2022/12/06 01:04:01;;;;;;;;;41.75;32.75;;;;;7.29;59.42;101601.75;5011507;28;45091;-65
2022/12/06 01:06:29;;;;;;;;;36.00;27.50;;;;;7.27;59.42;101597.19;5028191;28;45007;-61
2022/12/06 01:08:57;;;;;;;;;42.75;32.00;;;;;7.09;59.83;101574.09;5010607;28;45259;-62
2022/12/06 01:11:23;;;;;;;;;32.25;31.25;;;;;7.26;59.89;101603.31;5014799;28;45828;-63
2022/12/06 01:13:49;;;;;;;;;36.25;31.25;;;;;7.29;60.04;101604.41;5009446;28;44942;-66
2022/12/06 01:16:18;;;;;;;;;43.25;32.25;;;;;7.29;59.76;101600.81;5009646;28;44800;-64
2022/12/06 01:18:44;;;;;;;;;45.00;36.50;;;;;7.22;59.77;101604.91;5019124;28;45916;-62
2022/12/06 01:21:13;;;;;;;;;45.25;30.50;;;;;7.19;60.44;101605.66;5009357;28;45779;-61
2022/12/06 01:23:38;;;;;;;;;36.50;30.00;;;;;7.22;60.15;101604.00;5011093;28;45119;-60
2022/12/06 01:26:06;;;;;;;;;49.00;34.25;;;;;7.21;60.29;101600.44;5013484;28;44989;-59
2022/12/06 01:28:32;;;;;;;;;38.50;31.75;;;;;7.18;60.60;101606.50;5024817;28;45334;-61
2022/12/06 01:30:57;;;;;;;;;33.75;29.25;;;;;7.14;60.16;101596.53;5024733;28;45563;-60
2022/12/06 01:33:23;;;;;;;;;47.00;34.75;;;;;7.14;60.72;101595.59;5020119;28;45170;-61
2022/12/06 01:35:48;;;;;;;;;37.75;28.25;;;;;7.20;60.98;101607.47;5004773;28;45470;-59
2022/12/06 01:38:13;;;;;;;;;22.25;21.25;;;;;7.15;60.63;101592.13;5000984;28;45579;-61
2022/12/06 01:40:41;;;;;;;;;42.75;34.50;;;;;7.21;59.95;101603.09;5000038;28;48503;-60
2022/12/06 01:43:28;;;;;;;;;37.25;30.75;;;;;7.16;60.90;101604.56;4998907;28;45382;-61
2022/12/06 01:45:54;;;;;;;;;39.25;34.00;;;;;7.19;60.60;101600.34;4998203;28;45268;-59
2022/12/06 01:48:22;;;;;;;;;37.75;27.75;;;;;6.98;61.28;101562.00;5014014;28;45523;-60
2022/12/06 01:50:48;;;;;;;;;35.50;29.50;;;;;7.22;60.75;101606.66;5015607;28;45467;-61
2022/12/06 01:53:14;;;;;;;;;38.75;29.75;;;;;7.19;61.29;101600.34;5002417;28;45810;-60
2022/12/06 01:55:39;;;;;;;;;37.50;25.75;;;;;7.28;61.22;101607.00;5031634;28;45516;-59
2022/12/06 01:58:11;;;;;;;;;44.50;29.50;;;;;7.15;61.41;101585.06;5017885;28;45548;-60
2022/12/06 02:00:36;;;;;;;;;39.00;32.00;;;;;7.17;61.11;101591.34;5011216;28;46000;-60
2022/12/06 02:03:06;;;;;;;;;27.25;19.25;;;;;7.27;61.55;101611.38;4997511;28;45363;-60
2022/12/06 02:05:31;;;;;;;;;44.75;29.75;;;;;7.16;61.16;101592.22;5017489;28;45683;-60
2022/12/06 02:07:59;;;;;;;;;36.00;30.25;;;;;7.19;61.32;101592.38;5007060;28;45529;-60
2022/12/06 02:10:25;;;;;;;;;34.50;28.50;;;;;7.28;61.07;101613.22;5011033;28;45604;-60
2022/12/06 02:12:55;;;;;;;;;32.50;29.00;;;;;7.09;61.12;101579.41;4997513;28;45427;-59
2022/12/06 02:15:27;;;;;;;;;34.00;23.75;;;;;7.17;61.40;101604.66;4998430;28;45435;-60
2022/12/06 02:18:11;;;;;;;;;32.25;28.25;;;;;7.16;61.32;101600.19;4997824;28;45837;-62
2022/12/06 02:21:03;;;;;;;;;37.00;32.00;;;;;6.67;61.68;101515.19;4999661;28;46388;-59
2022/12/06 02:24:11;;;;;;;;;29.25;24.00;;;;;7.18;61.25;101609.16;4997278;28;45447;-64
2022/12/06 02:27:17;;;;;;;;;31.50;25.25;;;;;7.18;61.84;101621.53;4995602;28;45375;-62
2022/12/06 02:29:45;;;;;;;;;40.00;26.25;;;;;7.15;61.87;101614.28;4997239;28;45367;-61
2022/12/06 02:32:20;;;;;;;;;37.75;28.75;;;;;7.12;61.95;101619.44;5010765;28;45649;-60
2022/12/06 02:34:59;;;;;;;;;32.00;24.50;;;;;7.01;61.94;101596.69;5014672;28;45496;-61
2022/12/06 02:37:55;;;;;;;;;38.00;29.50;;;;;7.04;62.01;101599.50;5007380;28;45412;-62
2022/12/06 02:40:35;;;;;;;;;37.75;26.00;;;;;7.07;62.66;101612.06;4998980;28;45633;-62
2022/12/06 02:43:10;;;;;;;;;28.50;26.50;;;;;6.95;62.40;101605.25;5009078;28;46150;-61
2022/12/06 02:45:42;;;;;;;;;28.25;22.00;;;;;6.95;62.84;101601.69;4999562;28;45613;-60
2022/12/06 02:48:09;;;;;;;;;42.25;28.50;;;;;7.02;62.48;101614.47;5013547;28;45505;-61
2022/12/06 02:50:41;;;;;;;;;31.25;27.50;;;;;7.05;62.26;101606.66;4999651;28;45657;-60
2022/12/06 02:53:13;;;;;;;;;42.25;27.75;;;;;7.01;62.55;101602.00;4999778;28;46181;-60
2022/12/06 02:55:40;;;;;;;;;34.50;29.25;;;;;7.05;62.49;101603.09;5015805;28;45462;-58
2022/12/06 02:58:05;;;;;;;;;30.00;25.75;;;;;7.07;62.70;101590.81;5021641;28;45509;-60
2022/12/06 03:00:39;;;;;;;;;33.50;28.00;;;;;7.09;62.51;101594.44;5019509;28;45626;-61
2022/12/06 03:03:42;;;;;;;;;28.00;23.00;;;;;7.15;62.64;101602.75;5017835;28;46153;-60
2022/12/06 03:06:10;;;;;;;;;27.50;25.00;;;;;7.19;62.85;101597.69;5008520;28;45315;-66
2022/12/06 03:09:06;;;;;;;;;37.50;31.00;;;;;7.20;62.45;101601.25;5011493;28;45635;-65
2022/12/06 03:11:45;;;;;;;;;36.50;29.75;;;;;7.19;62.54;101608.31;5002241;28;45461;-64
2022/12/06 03:14:17;;;;;;;;;31.50;27.25;;;;;6.69;62.10;101518.81;4998258;28;46365;-64
2022/12/06 03:17:08;;;;;;;;;34.00;28.50;;;;;7.13;62.71;101594.69;5005293;28;45431;-64
2022/12/06 03:19:38;;;;;;;;;39.00;26.00;;;;;7.09;62.78;101583.81;5001182;28;45310;-64
2022/12/06 03:22:13;;;;;;;;;33.00;28.00;;;;;7.19;63.00;101603.00;4999217;28;45642;-66
2022/12/06 03:24:41;;;;;;;;;35.00;28.00;;;;;7.19;62.61;101605.66;5001525;28;45394;-64
2022/12/06 03:27:10;;;;;;;;;30.50;26.25;;;;;7.13;62.98;101594.69;5014079;28;45686;-62
2022/12/06 03:29:42;;;;;;;;;43.50;30.50;;;;;7.20;63.08;101606.56;5000430;28;45591;-62
2022/12/06 03:32:09;;;;;;;;;36.75;30.25;;;;;7.16;63.22;101597.53;5011512;28;45338;-60
2022/12/06 03:34:39;;;;;;;;;35.75;27.50;;;;;7.22;63.30;101593.38;4998862;28;45379;-61
2022/12/06 03:37:08;;;;;;;;;44.00;31.25;;;;;7.29;63.08;101601.75;4999260;28;46937;-62
2022/12/06 03:39:36;;;;;;;;;45.75;35.00;;;;;7.31;63.17;101600.09;4999602;28;45803;-60
2022/12/06 03:42:02;;;;;;;;;42.50;31.00;;;;;6.75;63.10;101503.22;4997909;28;45426;-60
2022/12/06 03:44:28;;;;;;;;;40.75;34.50;;;;;7.32;62.40;101603.66;5009838;28;46545;-60
2022/12/06 03:47:01;;;;;;;;;46.50;35.50;;;;;7.36;62.96;101606.56;5003173;28;45426;-59
2022/12/06 03:49:34;;;;;;;;;46.00;36.00;;;;;7.37;63.07;101608.41;5003672;28;45285;-61
2022/12/06 03:52:01;;;;;;;;;49.00;33.50;;;;;7.28;62.66;101596.38;5010134;28;45742;-59
2022/12/06 03:54:26;;;;;;;;;42.25;34.00;;;;;7.37;63.19;101615.44;4997025;28;46119;-61
2022/12/06 03:56:52;;;;;;;;;45.25;33.50;;;;;7.34;62.60;101597.59;4997521;28;45348;-60
2022/12/06 03:59:17;;;;;;;;;36.75;33.00;;;;;7.32;62.93;101604.56;5008426;28;46081;-59
2022/12/06 04:01:43;;;;;;;;;43.25;32.00;;;;;7.28;62.99;101588.38;5003313;28;45236;-60
2022/12/06 04:04:09;;;;;;;;;34.00;28.00;;;;;7.31;63.14;101593.84;4999099;28;45538;-60
2022/12/06 04:06:34;;;;;;;;;46.75;34.75;;;;;7.32;62.66;101599.25;4995970;28;45342;-59
2022/12/06 04:11:44;;;;;;;;;46.25;36.50;;;;;7.29;62.74;101593.78;5027094;28;45359;-59
2022/12/06 04:14:10;;;;;;;;;43.25;32.75;;;;;7.28;63.21;101591.94;4998494;28;45555;-60
2022/12/06 04:19:19;;;;;;;;;37.25;29.00;;;;;7.26;63.19;101590.97;5013095;28;45543;-59
2022/12/06 04:24:29;;;;;;;;;36.50;29.75;;;;;7.25;63.37;101605.06;5010914;28;45491;-60
2022/12/06 04:28:40;;;;;;;;;36.75;27.75;;;;;7.16;63.79;101588.63;4995492;28;45608;-61
2022/12/06 04:40:40;;;;;;;;;38.75;31.00;;;;;7.33;63.46;101600.19;4995801;28;45558;-59
2022/12/06 04:45:50;;;;;;;;;33.50;28.75;;;;;7.24;63.72;101584.63;4995104;28;45515;-60
2022/12/06 04:48:15;;;;;;;;;41.25;34.75;;;;;7.29;63.58;101601.75;5009492;28;45592;-60
2022/12/06 04:50:46;;;;;;;;;42.50;31.75;;;;;7.25;64.02;101599.75;5006579;28;45419;-61
2022/12/06 04:53:12;;;;;;;;;40.25;31.75;;;;;7.22;63.84;101583.63;4996519;28;45394;-61
2022/12/06 04:55:37;;;;;;;;;37.25;30.25;;;;;7.20;64.03;101586.22;5001634;28;46131;-60
2022/12/06 04:58:02;;;;;;;;;58.00;45.25;;;;;7.19;64.23;101584.41;5025024;28;54770;-61
2022/12/06 05:00:27;;;;;;;;;43.00;33.25;;;;;7.17;64.10;101575.41;4997197;28;45380;-62
2022/12/06 05:02:53;;;;;;;;;31.25;28.00;;;;;7.20;63.88;101577.34;4995822;28;45635;-60
2022/12/06 05:05:18;;;;;;;;;38.00;31.25;;;;;7.26;63.97;101592.69;5006315;28;48338;-59
2022/12/06 05:07:43;;;;;;;;;42.50;28.50;;;;;7.24;64.46;101587.28;5020103;28;45515;-59
2022/12/06 05:10:09;;;;;;;;;42.25;32.00;;;;;7.13;64.08;101565.47;4999508;28;50789;-58
2022/12/06 05:12:34;;;;;;;;;28.00;18.50;;;;;7.25;64.31;101585.56;4996151;28;45462;-59
2022/12/06 05:14:59;;;;;;;;;44.00;34.75;;;;;7.16;63.92;101572.69;4994027;28;51429;-60
2022/12/06 05:17:25;;;;;;;;;34.25;26.75;;;;;7.13;64.24;101560.16;5008920;28;45509;-59
2022/12/06 05:19:50;;;;;;;;;38.00;30.00;;;;;7.26;64.15;101569.69;4995634;28;45546;-60
2022/12/06 05:22:15;;;;;;;;;42.75;31.00;;;;;7.26;64.55;101563.44;5006578;28;45292;-60
2022/12/06 05:24:41;;;;;;;;;41.50;35.25;;;;;7.26;64.12;101567.03;4994486;28;46424;-61
2022/12/06 05:27:06;;;;;;;;;39.25;30.00;;;;;7.28;63.96;101573.34;4994146;28;52510;-64
2022/12/06 05:29:31;;;;;;;;;36.00;29.50;;;;;7.35;63.90;101572.81;4995402;28;45647;-64
2022/12/06 05:31:57;;;;;;;;;35.25;23.75;;;;;7.38;64.03;101572.09;4994705;28;45345;-64
2022/12/06 05:34:23;;;;;;;;;34.50;30.00;;;;;7.29;63.83;101550.31;4995641;28;46022;-63
2022/12/06 05:36:49;;;;;;;;;41.25;32.00;;;;;7.35;63.60;101563.94;4994759;28;45462;-60
2022/12/06 05:39:15;;;;;;;;;41.50;31.00;;;;;7.30;63.62;101546.84;4997256;28;45658;-59
2022/12/06 05:41:40;;;;;;;;;46.00;37.00;;;;;7.46;64.00;101570.75;5002160;28;45630;-60
2022/12/06 05:44:07;;;;;;;;;33.25;32.00;;;;;7.47;63.90;101556.59;4993652;28;46117;-60
2022/12/06 05:46:33;;;;;;;;;35.00;27.50;;;;;7.47;63.79;101563.66;4998972;28;45544;-60
2022/12/06 05:48:58;;;;;;;;;30.25;23.25;;;;;7.50;63.83;101572.72;5006545;28;46151;-58
2022/12/06 05:51:23;;;;;;;;;27.75;23.00;;;;;7.51;63.48;101565.66;4995391;28;45280;-60
2022/12/06 05:53:49;;;;;;;;;24.00;21.50;;;;;7.52;63.70;101568.41;4994266;28;45355;-61
2022/12/06 05:56:14;;;;;;;;;26.25;22.50;;;;;7.55;63.22;101562.31;5020680;28;49360;-61
2022/12/06 05:58:42;;;;;;;;;35.50;33.25;;;;;7.40;63.25;101541.16;4998498;28;45352;-65
2022/12/06 06:01:08;;;;;;;;;34.75;26.50;;;;;7.54;63.34;101565.84;4995485;28;45276;-60
2022/12/06 06:03:34;;;;;;;;;34.50;30.50;;;;;7.44;63.96;101551.16;4994280;28;45293;-60
2022/12/06 06:06:01;;;;;;;;;29.75;24.75;;;;;7.48;63.55;101557.53;4994684;28;45266;-60
2022/12/06 06:08:27;;;;;;;;;26.50;20.75;;;;;7.56;63.39;101574.78;5008124;28;45422;-60
2022/12/06 06:10:53;;;;;;;;;27.25;24.75;;;;;7.50;63.76;101559.41;4999984;28;45377;-60
2022/12/06 06:13:18;;;;;;;;;30.00;22.75;;;;;7.54;63.63;101573.81;5014657;28;46191;-62
2022/12/06 06:15:44;;;;;;;;;29.25;28.00;;;;;7.53;63.74;101569.31;4998148;28;45435;-60
2022/12/06 06:18:09;;;;;;;;;28.50;26.25;;;;;7.53;63.98;101562.25;4996840;28;45495;-61
2022/12/06 06:20:34;;;;;;;;;28.75;25.50;;;;;7.58;63.96;101573.13;4997259;28;45503;-60
2022/12/06 06:23:00;;;;;;;;;33.75;27.50;;;;;7.59;63.83;101574.97;4996667;28;54198;-60
2022/12/06 06:25:26;;;;;;;;;35.50;25.00;;;;;7.61;63.92;101573.28;4996556;28;45529;-59
2022/12/06 06:27:53;;;;;;;;;35.75;28.75;;;;;7.61;63.72;101575.03;5002563;28;45298;-60
2022/12/06 06:30:19;;;;;;;;;34.25;27.50;;;;;7.61;64.23;101577.69;4997020;28;45496;-61
2022/12/06 06:32:44;;;;;;;;;65.50;48.75;;;;;7.57;64.33;101565.97;5001455;28;45564;-60
2022/12/06 06:35:10;;;;;;;;;32.75;25.75;;;;;7.56;63.74;101564.16;5015823;28;45635;-60
2022/12/06 06:37:35;;;;;;;;;43.25;31.00;;;;;7.67;64.60;101568.28;5002932;28;45511;-61
2022/12/06 06:40:01;;;;;;;;;75.00;53.25;;;;;7.68;64.15;101577.16;4997142;28;45535;-61
2022/12/06 06:42:27;;;;;;;;;41.25;25.50;;;;;7.53;63.39;101551.59;4996732;28;45566;-62
2022/12/06 06:44:55;;;;;;;;;28.25;20.75;;;;;7.67;63.90;101578.94;5012913;28;46279;-60
2022/12/06 06:47:21;;;;;;;;;28.50;24.00;;;;;7.68;63.65;101579.84;5008401;28;45514;-61
2022/12/06 06:49:46;;;;;;;;;28.50;23.75;;;;;7.72;64.07;101584.44;5008874;28;45484;-59
2022/12/06 06:52:12;;;;;;;;;74.50;57.25;;;;;7.60;63.79;101570.53;4995143;28;46378;-59
2022/12/06 06:54:37;;;;;;;;;59.50;44.75;;;;;7.65;63.75;101579.66;5010204;28;45505;-61
2022/12/06 06:57:03;;;;;;;;;38.00;33.50;;;;;7.27;63.89;101512.13;4997403;28;45430;-60
2022/12/06 06:59:28;;;;;;;;;36.00;30.50;;;;;7.64;64.48;101572.50;5009327;28;45476;-60
2022/12/06 07:01:54;;;;;;;;;37.75;29.00;;;;;7.73;64.17;101584.53;5011114;28;45496;-64
2022/12/06 07:04:19;;;;;;;;;57.50;44.00;;;;;7.74;63.92;101581.06;5005157;28;45351;-59
2022/12/06 07:06:44;;;;;;;;;45.25;36.00;;;;;7.70;64.41;101575.50;5001535;28;45440;-62
2022/12/06 07:09:10;;;;;;;;;35.25;28.00;;;;;7.70;64.09;101572.84;5003181;28;45318;-63
2022/12/06 07:11:35;;;;;;;;;36.50;29.75;;;;;7.73;64.81;101584.53;5026721;28;47026;-61
2022/12/06 07:14:01;;;;;;;;;71.00;51.50;;;;;7.75;63.96;101584.63;5022703;28;45093;-62
2022/12/06 07:16:26;;;;;;;;;37.00;30.25;;;;;7.67;64.04;101570.94;5009607;28;45360;-63
2022/12/06 07:18:52;;;;;;;;;39.75;30.75;;;;;7.78;64.42;101586.53;5002822;28;45511;-61
2022/12/06 07:21:17;;;;;;;;;31.00;31.00;;;;;7.75;64.49;101582.91;5009401;28;45687;-62
2022/12/06 07:23:43;;;;;;;;;35.25;27.50;;;;;7.67;65.19;101562.97;5012049;28;45484;-60
2022/12/06 07:26:11;;;;;;;;;49.50;36.75;;;;;7.75;64.76;101577.56;4997722;28;45865;-61
2022/12/06 07:28:41;;;;;;;;;35.00;29.00;;;;;7.77;65.30;101575.00;4995742;28;45313;-60
2022/12/06 07:31:29;;;;;;;;;34.50;30.25;;;;;7.81;64.60;101589.34;4995624;28;45912;-65
2022/12/06 07:33:58;;;;;;;;;32.25;29.00;;;;;7.76;64.51;101575.81;4996894;28;45360;-63
2022/12/06 07:36:26;;;;;;;;;43.50;35.00;;;;;7.84;64.95;101581.53;4997952;28;45595;-65
2022/12/06 07:38:53;;;;;;;;;33.50;28.00;;;;;7.82;64.62;101577.84;4996868;28;45381;-63
2022/12/06 07:46:53;;;;;;;;;45.00;38.00;;;;;7.83;65.13;101569.06;5000105;28;45391;-61
2022/12/06 07:49:19;;;;;;;;;41.50;35.25;;;;;7.87;65.37;101584.31;5004257;28;45498;-62
2022/12/06 07:51:45;;;;;;;;;36.75;29.25;;;;;7.74;65.36;101565.09;4995407;28;45635;-61
2022/12/06 07:54:11;;;;;;;;;37.50;30.75;;;;;7.82;64.93;101584.13;4998740;28;45341;-62
2022/12/06 07:56:36;;;;;;;;;53.00;39.50;;;;;7.72;65.04;101584.44;4995333;28;45636;-62
2022/12/06 07:59:02;;;;;;;;;60.25;45.25;;;;;7.71;65.58;101578.22;4995695;28;45379;-62
2022/12/06 08:01:28;;;;;;;;;58.75;38.50;;;;;7.80;65.96;101583.09;5003552;28;46010;-59
2022/12/06 08:03:55;;;;;;;;;34.75;32.00;;;;;7.73;65.60;101584.53;5010542;28;45400;-60
2022/12/06 08:06:21;;;;;;;;;44.25;35.25;;;;;7.80;66.30;101585.75;5023912;28;45416;-61
2022/12/06 08:08:46;;;;;;;;;39.50;34.75;;;;;7.78;65.75;101582.13;5014924;28;45315;-62
2022/12/06 08:11:12;;;;;;;;;43.75;35.25;;;;;7.75;65.87;101576.63;5010139;28;45502;-60
2022/12/06 08:13:37;;;;;;;;;52.75;37.50;;;;;7.83;65.65;101582.34;5001865;28;45383;-60
2022/12/06 08:16:05;;;;;;;;;51.25;42.00;;;;;7.92;65.83;101599.72;4997013;28;45391;-62
2022/12/06 08:18:31;;;;;;;;;52.25;38.00;;;;;7.93;65.11;101603.28;5009214;28;45461;-62
2022/12/06 08:20:57;;;;;;;;;50.00;38.50;;;;;7.89;65.41;101606.63;5013200;28;46172;-62
2022/12/06 08:23:23;;;;;;;;;58.00;39.75;;;;;7.88;65.15;101611.00;5003541;28;46228;-61
2022/12/06 08:25:56;;;;;;;;;52.50;36.75;;;;;7.86;65.23;101611.78;5001729;28;45762;-62
2022/12/06 08:28:21;;;;;;;;;56.75;40.00;;;;;7.90;65.82;101614.69;4995194;28;45428;-65
2022/12/06 08:30:47;;;;;;;;;44.75;30.25;;;;;7.78;64.68;101584.78;4999232;28;46521;-65
2022/12/06 08:33:12;;;;;;;;;54.75;37.75;;;;;7.88;65.28;101615.44;5016035;28;55390;-61
2022/12/06 08:35:37;;;;;;;;;56.25;38.50;;;;;7.83;64.69;101608.97;5023557;28;46959;-61
2022/12/06 08:38:02;;;;;;;;;44.50;35.25;;;;;7.72;65.03;101603.06;5001289;28;45207;-61
2022/12/06 08:40:28;;;;;;;;;51.75;38.25;;;;;7.75;65.27;101620.13;5004458;28;53341;-61
2022/12/06 08:42:53;;;;;;;;;78.00;54.00;;;;;7.79;65.95;101628.25;4996208;28;45816;-62
2022/12/06 08:45:18;;;;;;;;;59.00;43.75;;;;;7.71;66.00;101617.22;4994747;28;45316;-61
2022/12/06 08:47:44;;;;;;;;;57.75;46.75;;;;;7.81;66.09;101634.59;5006659;28;45404;-64
2022/12/06 08:50:09;;;;;;;;;55.25;38.00;;;;;7.78;65.39;101622.03;4996095;28;45713;-61
2022/12/06 08:52:35;;;;;;;;;51.50;39.00;;;;;7.80;65.77;101633.66;4994137;28;45470;-61
2022/12/06 08:55:00;;;;;;;;;50.75;37.00;;;;;7.79;65.80;101647.81;4994018;28;45457;-63
2022/12/06 08:57:25;;;;;;;;;55.00;40.25;;;;;7.65;66.80;101631.09;4998549;28;45614;-60
2022/12/06 08:59:51;;;;;;;;;50.00;38.75;;;;;7.64;66.86;101637.28;5000123;28;46097;-64
2022/12/06 09:02:16;;;;;;;;;48.50;37.00;;;;;7.62;66.47;101638.00;5024507;28;45467;-63
2022/12/06 09:04:41;;;;;;;;;50.50;40.00;;;;;7.64;67.09;101652.28;5014125;28;45481;-64
2022/12/06 09:07:07;;;;;;;;;49.25;37.50;;;;;7.66;68.08;101653.31;5013150;28;45514;-60
2022/12/06 09:09:33;;;;;;;;;51.25;38.25;;;;;7.68;66.85;101662.28;5014170;28;45406;-62
2022/12/06 09:11:59;;;;;;;;;55.50;39.75;;;;;7.64;67.43;101652.28;5011942;28;46037;-60
2022/12/06 09:14:24;;;;;;;;;46.75;35.75;;;;;7.62;68.00;101653.97;5013712;28;45250;-61
2022/12/06 09:16:51;;;;;;;;;55.50;42.00;;;;;7.50;67.92;101640.94;5013236;28;45709;-63
2022/12/06 09:19:17;;;;;;;;;44.50;35.75;;;;;7.55;67.64;101661.63;5011503;28;45718;-62
2022/12/06 09:21:42;;;;;;;;;41.00;34.00;;;;;7.52;68.25;101660.53;5010723;28;45526;-62
2022/12/06 09:24:13;;;;;;;;;49.25;37.75;;;;;7.49;67.98;101657.72;5013419;28;45587;-61
2022/12/06 09:26:39;;;;;;;;;59.25;39.00;;;;;7.43;67.88;101655.66;5013214;28;45445;-64
2022/12/06 09:29:05;;;;;;;;;51.00;36.25;;;;;7.41;67.95;101649.34;5011907;28;48650;-62
2022/12/06 09:31:30;;;;;;;;;50.50;37.50;;;;;7.48;68.67;101669.19;5011099;28;45667;-63
2022/12/06 09:33:55;;;;;;;;;46.00;36.50;;;;;7.45;68.42;101661.06;5013497;28;45505;-65
2022/12/06 09:36:29;;;;;;;;;53.75;42.00;;;;;7.43;68.51;101668.94;5007221;28;45737;-64
2022/12/06 09:39:02;;;;;;;;;53.25;38.50;;;;;7.30;68.59;101642.53;5013103;28;46137;-62
2022/12/06 09:41:55;;;;;;;;;53.50;41.50;;;;;7.43;68.72;101663.63;5012598;28;45450;-62
2022/12/06 09:44:58;;;;;;;;;56.50;40.75;;;;;7.50;68.54;101670.19;5006947;28;45571;-65
2022/12/06 09:47:52;;;;;;;;;61.50;42.00;;;;;7.56;67.96;101666.13;5013144;28;45564;-68
2022/12/06 09:50:32;;;;;;;;;46.75;38.25;;;;;7.59;67.79;101670.69;5016708;28;46261;-62
2022/12/06 09:53:03;;;;;;;;;50.25;39.50;;;;;7.60;67.49;101672.50;5017057;28;45317;-61
2022/12/06 09:55:47;;;;;;;;;50.00;36.50;;;;;7.47;68.06;101673.59;5014768;28;45404;-65
2022/12/06 09:58:18;;;;;;;;;43.75;36.50;;;;;7.47;68.58;101670.03;5012877;28;45971;-59
2022/12/06 10:00:57;;;;;;;;;50.00;38.00;;;;;7.39;69.16;101682.88;5015322;28;46120;-63
2022/12/06 10:03:44;;;;;;;;;46.50;34.75;;;;;7.36;69.17;101688.06;5015679;28;45505;-62
2022/12/06 10:06:17;;;;;;;;;46.50;36.00;;;;;7.38;69.55;101681.09;5009136;28;45674;-63
2022/12/06 10:09:21;;;;;;;;;46.50;31.25;;;;;7.36;70.50;101678.34;5016802;28;46136;-61
2022/12/06 10:12:10;;;;;;;;;43.25;34.25;;;;;7.43;69.62;101689.31;5015845;28;45436;-60
2022/12/06 10:14:59;;;;;;;;;48.50;37.25;;;;;7.40;70.32;101679.41;5017041;28;45500;-62
2022/12/06 10:17:49;;;;;;;;;36.25;32.00;;;;;7.13;69.66;101623.94;5014120;28;45366;-61
2022/12/06 10:20:22;;;;;;;;;48.25;34.50;;;;;7.44;70.77;101676.09;5016808;28;45496;-61
2022/12/06 10:23:19;;;;;;;;;50.25;37.00;;;;;7.53;70.66;101663.28;5016905;28;45526;-61
2022/12/06 10:26:06;;;;;;;;;44.75;37.25;;;;;7.62;70.09;101668.16;5011437;28;45283;-63
2022/12/06 10:28:43;;;;;;;;;42.25;28.25;;;;;7.61;70.14;101650.41;5015714;28;45400;-62
2022/12/06 10:31:29;;;;;;;;;40.50;32.25;;;;;7.61;69.69;101637.09;5017588;28;45298;-64
2022/12/06 10:34:10;;;;;;;;;49.75;31.75;;;;;7.81;69.27;101670.06;5015758;28;46152;-62
2022/12/06 10:37:16;;;;;;;;;52.25;41.50;;;;;7.87;68.90;101678.38;5012860;28;45979;-61
2022/12/06 10:39:54;;;;;;;;;49.00;38.00;;;;;7.92;69.30;101674.22;5027473;28;45284;-64
2022/12/06 10:42:25;;;;;;;;;53.25;43.50;;;;;7.94;69.19;101671.63;5010454;28;45312;-61
2022/12/06 10:44:58;;;;;;;;;46.50;37.25;;;;;7.98;69.41;101672.69;5010224;28;46511;-62
2022/12/06 10:47:39;;;;;;;;;19.50;14.00;;;;;7.80;68.55;101641.63;5014556;28;45646;-65
2022/12/06 10:50:21;;;;;;;;;46.75;32.25;;;;;7.84;68.98;101664.91;5013461;28;45370;-64
2022/12/06 10:52:52;;;;;;;;;42.50;32.00;;;;;7.85;69.13;101668.47;5015957;28;45566;-60
2022/12/06 10:55:39;;;;;;;;;43.25;33.00;;;;;7.80;68.95;101670.00;5009429;28;46192;-62
2022/12/06 10:58:32;;;;;;;;;38.75;35.00;;;;;7.69;69.32;101674.75;5010295;28;45517;-62
2022/12/06 11:01:00;;;;;;;;;55.25;38.00;;;;;7.60;69.61;101660.97;5015634;28;45400;-66
2022/12/06 11:03:41;;;;;;;;;52.25;38.75;;;;;7.66;69.64;101667.50;5015448;28;45354;-61
2022/12/06 11:06:53;;;;;;;;;43.50;35.25;;;;;7.62;70.18;101664.59;5008491;28;46481;-60
2022/12/06 11:09:47;;;;;;;;;38.50;32.00;;;;;7.53;70.68;101644.66;5000837;28;45645;-61
2022/12/06 11:12:34;;;;;;;;;50.25;37.50;;;;;7.51;70.36;101643.69;5003788;28;45611;-60
2022/12/06 11:15:21;;;;;;;;;43.50;36.50;;;;;7.66;70.61;101659.53;5013923;28;45553;-60
2022/12/06 11:18:04;;;;;;;;;66.00;41.75;;;;;7.72;70.25;101656.28;5013291;28;46232;-61
2022/12/06 11:20:38;;;;;;;;;50.50;37.75;;;;;7.79;70.15;101653.13;5001840;28;45528;-62
2022/12/06 11:23:33;;;;;;;;;43.75;37.50;;;;;7.82;69.93;101647.03;5014608;28;45414;-65
2022/12/06 11:25:59;;;;;;;;;46.75;37.75;;;;;7.84;70.63;101656.03;5004689;28;45339;-65
2022/12/06 11:28:35;;;;;;;;;53.75;40.00;;;;;7.79;69.82;101639.81;5003471;28;48071;-65
2022/12/06 11:31:14;;;;;;;;;58.00;38.25;;;;;7.82;69.44;101650.63;5015385;28;45774;-60
2022/12/06 11:33:39;;;;;;;;;45.00;37.75;;;;;7.79;69.69;101639.81;5013838;28;45446;-64
2022/12/06 11:36:06;;;;;;;;;54.75;39.50;;;;;7.64;70.62;101609.75;5013691;28;45483;-65
2022/12/06 11:38:35;;;;;;;;;65.00;44.25;;;;;7.83;71.05;101631.16;5015723;28;45532;-63
2022/12/06 11:41:05;;;;;;;;;52.00;38.00;;;;;7.93;70.39;101635.19;5014133;28;45452;-63
2022/12/06 11:43:34;;;;;;;;;57.50;39.75;;;;;7.93;70.16;101633.44;5014499;28;45406;-61
2022/12/06 11:46:02;;;;;;;;;53.50;37.50;;;;;7.96;70.39;101627.38;5003662;28;45541;-62
2022/12/06 11:48:31;;;;;;;;;55.75;42.00;;;;;7.98;70.31;101622.13;5013158;28;47362;-63
2022/12/06 11:50:57;;;;;;;;;61.75;44.25;;;;;7.96;70.10;101615.84;5014057;28;45657;-63
2022/12/06 11:53:48;;;;;;;;;59.25;43.25;;;;;8.06;69.90;101620.78;5014744;28;45459;-61
2022/12/06 11:56:25;;;;;;;;;52.50;41.00;;;;;8.08;69.88;101620.03;4977681;28;45422;-66
2022/12/06 11:59:12;;;;;;;;;62.25;42.75;;;;;8.15;69.58;101621.25;5014879;28;46456;-64